Time;durP1;ratioP1;P1;durP2;ratioP2;P2;SDS_P1;SDS_P2;PMS_P1;PMS_P2;Temp;Humidity;BMP_temperature;BMP_pressure;BME280_temperature;BME280_humidity;BME280_pressure;Samples;Min_cycle;Max_cycle;Signal;HPM_P1;HPM_P2
2022/11/14 00:00:41;;;;;;;42.33;25.65;;;8.00;99.90;;;;;;5043043;28;20120;-88
2022/11/14 00:03:08;;;;;;;41.88;25.75;;;8.80;99.90;;;;;;5051168;28;20049;-87
2022/11/14 00:05:39;;;;;;;39.55;24.65;;;7.30;99.90;;;;;;5035423;28;20041;-87
2022/11/14 00:08:05;;;;;;;43.42;26.23;;;9.00;99.90;;;;;;5030402;28;20060;-88
2022/11/14 00:10:31;;;;;;;42.72;25.33;;;8.20;99.90;;;;;;5018626;28;20041;-88
2022/11/14 00:12:56;;;;;;;42.55;26.35;;;7.40;99.90;;;;;;5028193;28;20103;-87
2022/11/14 00:15:22;;;;;;;37.47;24.45;;;9.00;99.90;;;;;;5015219;28;20065;-88
2022/11/14 00:17:48;;;;;;;37.42;22.48;;;7.40;99.90;;;;;;5011481;28;20052;-87
2022/11/14 00:20:14;;;;;;;37.47;22.27;;;8.90;99.90;;;;;;5034181;28;20458;-88
2022/11/14 00:22:39;;;;;;;42.47;24.00;;;7.30;99.90;;;;;;5017383;28;20084;-87
2022/11/14 00:25:06;;;;;;;36.45;22.13;;;9.10;99.90;;;;;;5015933;28;20080;-87
2022/11/14 00:27:31;;;;;;;37.28;21.92;;;7.40;99.90;;;;;;5023022;28;20045;-87
2022/11/14 00:29:57;;;;;;;39.97;24.38;;;7.40;99.90;;;;;;5050392;28;20124;-88
2022/11/14 00:32:24;;;;;;;37.65;22.90;;;7.40;99.90;;;;;;5042044;28;20045;-88
2022/11/14 00:34:49;;;;;;;38.17;23.73;;;7.40;99.90;;;;;;5033854;28;20041;-88
2022/11/14 00:37:15;;;;;;;38.55;23.17;;;9.00;99.90;;;;;;5020158;28;20056;-87
2022/11/14 00:39:40;;;;;;;39.40;23.65;;;7.50;99.90;;;;;;5035917;28;20033;-88
2022/11/14 00:42:06;;;;;;;38.03;24.17;;;7.40;99.90;;;;;;5017046;28;20114;-88
2022/11/14 00:44:32;;;;;;;40.08;24.48;;;8.00;99.90;;;;;;5002002;28;20048;-88
2022/11/14 00:46:57;;;;;;;38.97;24.35;;;7.40;99.90;;;;;;5006015;28;20116;-87
2022/11/14 00:49:23;;;;;;;39.88;23.88;;;7.50;99.90;;;;;;5029858;28;20049;-87
2022/11/14 00:51:48;;;;;;;40.35;24.42;;;7.50;99.90;;;;;;5026200;28;20040;-88
2022/11/14 00:54:14;;;;;;;40.35;25.13;;;7.50;99.90;;;;;;5022490;28;20053;-87
2022/11/14 00:56:40;;;;;;;42.05;26.58;;;7.50;99.90;;;;;;5020470;28;20509;-87
2022/11/14 00:59:05;;;;;;;45.15;27.48;;;7.50;99.90;;;;;;5055887;28;20043;-87
2022/11/14 01:01:31;;;;;;;41.00;24.75;;;7.50;99.90;;;;;;5037905;28;20132;-87
2022/11/14 01:03:57;;;;;;;45.60;27.73;;;7.50;99.90;;;;;;5037697;28;20124;-87
2022/11/14 01:06:22;;;;;;;41.53;27.08;;;7.50;99.90;;;;;;5055251;28;20482;-87
2022/11/14 01:08:50;;;;;;;40.67;26.15;;;9.00;99.90;;;;;;5053632;28;20073;-87
2022/11/14 01:11:18;;;;;;;42.78;27.17;;;7.50;99.90;;;;;;5017801;28;20049;-88
2022/11/14 01:13:45;;;;;;;44.03;27.90;;;8.10;99.90;;;;;;5035618;28;20109;-88
2022/11/14 01:16:11;;;;;;;42.70;26.38;;;7.50;99.90;;;;;;5035556;28;20061;-88
2022/11/14 01:18:38;;;;;;;44.45;27.80;;;7.50;99.90;;;;;;5035666;28;20410;-87
2022/11/14 01:21:06;;;;;;;43.47;27.90;;;7.50;99.90;;;;;;5035690;28;20126;-88
2022/11/14 01:23:32;;;;;;;44.53;28.15;;;7.50;99.90;;;;;;5019299;28;20064;-86
2022/11/14 01:26:10;;;;;;;44.72;27.70;;;7.50;99.90;;;;;;5035733;28;20045;-84
2022/11/14 01:28:36;;;;;;;42.40;27.55;;;7.50;99.90;;;;;;5000601;28;20041;-84
2022/11/14 01:31:14;;;;;;;41.80;26.75;;;7.80;99.90;;;;;;5016624;28;20394;-85
2022/11/14 01:33:39;;;;;;;43.70;27.50;;;8.60;99.90;;;;;;5031467;28;20407;-85
2022/11/14 01:36:06;;;;;;;45.95;27.92;;;8.50;99.90;;;;;;5000773;28;20041;-88
2022/11/14 01:38:32;;;;;;;41.60;27.38;;;7.50;99.90;;;;;;5041723;28;20045;-88
2022/11/14 01:40:58;;;;;;;42.88;26.45;;;7.40;99.90;;;;;;5035338;28;20036;-87
2022/11/14 01:43:29;;;;;;;41.97;27.77;;;7.40;99.90;;;;;;5035733;28;20076;-88
2022/11/14 01:46:08;;;;;;;42.92;27.50;;;7.50;99.90;;;;;;5035263;28;20128;-87
2022/11/14 01:48:54;;;;;;;47.33;28.77;;;7.50;99.90;;;;;;4999839;28;20494;-87
2022/11/14 01:51:33;;;;;;;47.78;29.92;;;7.40;99.90;;;;;;5017308;28;20398;-87
2022/11/14 01:54:03;;;;;;;47.33;29.17;;;7.40;99.90;;;;;;5016724;28;20052;-87
2022/11/14 01:56:39;;;;;;;46.55;28.80;;;7.40;99.90;;;;;;5020621;28;20044;-87
2022/11/14 01:59:11;;;;;;;48.78;30.02;;;7.30;99.90;;;;;;5054854;28;20057;-87
2022/11/14 02:01:42;;;;;;;45.58;29.25;;;8.80;99.90;;;;;;5037850;28;20088;-87
2022/11/14 02:04:08;;;;;;;48.05;30.00;;;7.30;99.90;;;;;;5037357;28;20049;-88
2022/11/14 02:06:35;;;;;;;51.53;30.80;;;7.30;99.90;;;;;;5037211;28;20033;-87
2022/11/14 02:09:05;;;;;;;49.92;31.50;;;7.30;99.90;;;;;;5027630;28;20402;-87
2022/11/14 02:11:35;;;;;;;47.97;31.70;;;7.30;99.90;;;;;;5016815;28;20041;-88
2022/11/14 02:14:01;;;;;;;50.00;31.98;;;7.30;99.90;;;;;;5001340;28;20107;-88
2022/11/14 02:16:27;;;;;;;53.47;32.15;;;7.20;99.90;;;;;;5035572;28;20037;-88
2022/11/14 02:18:52;;;;;;;51.67;32.90;;;7.20;99.90;;;;;;5054486;28;20059;-87
2022/11/14 02:21:18;;;;;;;56.38;33.45;;;7.30;99.90;;;;;;5034299;28;20037;-87
2022/11/14 02:23:44;;;;;;;54.70;32.28;;;7.30;99.90;;;;;;5054252;28;20080;-88
2022/11/14 02:26:09;;;;;;;55.13;34.47;;;7.20;99.90;;;;;;5053781;28;20040;-87
2022/11/14 02:28:35;;;;;;;54.42;34.13;;;7.20;99.90;;;;;;5033506;28;20064;-87
2022/11/14 02:31:01;;;;;;;55.63;33.08;;;7.20;99.90;;;;;;5052996;28;20048;-88
2022/11/14 02:33:26;;;;;;;54.25;34.30;;;7.20;99.90;;;;;;5054019;28;20393;-87
2022/11/14 02:35:52;;;;;;;52.65;33.55;;;7.20;99.90;;;;;;5053696;28;20595;-87
2022/11/14 02:38:17;;;;;;;56.55;35.28;;;7.20;99.90;;;;;;5020248;28;20041;-87
2022/11/14 02:40:43;;;;;;;56.78;33.45;;;7.10;99.90;;;;;;5035999;28;20136;-88
2022/11/14 02:43:09;;;;;;;56.92;34.70;;;7.20;99.90;;;;;;5051272;28;20107;-87
2022/11/14 02:45:34;;;;;;;58.22;33.92;;;7.20;99.90;;;;;;5034814;28;20042;-87
2022/11/14 02:48:00;;;;;;;58.20;35.13;;;7.20;99.90;;;;;;5016343;28;20050;-87
2022/11/14 02:50:26;;;;;;;64.15;34.47;;;7.20;99.90;;;;;;5015992;28;20084;-87
2022/11/14 02:52:52;;;;;;;59.05;34.58;;;7.40;99.90;;;;;;5015428;28;20048;-86
2022/11/14 02:55:20;;;;;;;58.15;33.38;;;7.20;99.90;;;;;;5015923;28;20056;-87
2022/11/14 02:57:45;;;;;;;59.83;35.88;;;7.20;99.90;;;;;;5034328;28;20048;-88
2022/11/14 03:00:12;;;;;;;52.83;32.10;;;7.20;99.90;;;;;;5031753;28;20046;-87
2022/11/14 03:02:37;;;;;;;59.65;34.30;;;7.20;99.90;;;;;;5015347;28;20478;-87
2022/11/14 03:05:03;;;;;;;60.28;35.35;;;7.30;99.90;;;;;;5032980;28;20053;-87
2022/11/14 03:07:29;;;;;;;57.75;34.28;;;7.30;99.90;;;;;;4998060;28;20046;-87
2022/11/14 03:09:54;;;;;;;57.58;33.22;;;8.40;99.90;;;;;;5033673;28;20116;-87
2022/11/14 03:12:20;;;;;;;57.35;34.78;;;7.30;99.90;;;;;;5016419;28;20063;-87
2022/11/14 03:14:46;;;;;;;57.13;33.35;;;7.30;99.90;;;;;;5033033;28;20046;-87
2022/11/14 03:17:12;;;;;;;57.13;33.80;;;8.90;99.90;;;;;;5014014;28;20037;-87
2022/11/14 03:19:37;;;;;;;53.83;33.05;;;7.40;99.90;;;;;;5026088;28;20139;-87
2022/11/14 03:22:03;;;;;;;56.58;33.55;;;7.30;99.90;;;;;;5051805;28;20049;-87
2022/11/14 03:24:29;;;;;;;56.80;32.45;;;8.40;99.90;;;;;;5017250;28;20044;-87
2022/11/14 03:26:55;;;;;;;57.20;33.90;;;7.40;99.90;;;;;;5015148;28;20060;-87
2022/11/14 03:29:20;;;;;;;54.42;33.08;;;7.40;99.90;;;;;;5032299;28;20140;-87
2022/11/14 03:31:46;;;;;;;57.38;33.17;;;8.40;99.90;;;;;;5037312;28;20044;-88
2022/11/14 03:34:12;;;;;;;53.90;32.65;;;7.40;99.90;;;;;;5052505;28;20037;-87
2022/11/14 03:36:38;;;;;;;60.80;33.60;;;7.40;99.90;;;;;;5053049;28;20106;-86
2022/11/14 03:39:04;;;;;;;53.65;32.70;;;8.70;99.90;;;;;;5038249;28;20134;-88
2022/11/14 03:41:30;;;;;;;56.28;33.38;;;7.30;99.90;;;;;;5032731;28;20040;-84
2022/11/14 03:43:55;;;;;;;56.40;32.40;;;7.40;99.90;;;;;;5014844;28;20037;-87
2022/11/14 03:46:21;;;;;;;55.05;34.28;;;7.30;99.90;;;;;;4998148;28;22009;-87
2022/11/14 03:48:47;;;;;;;58.08;34.67;;;7.40;99.90;;;;;;5033042;28;20049;-87
2022/11/14 03:51:12;;;;;;;53.53;32.92;;;7.40;99.90;;;;;;5032759;28;20045;-87
2022/11/14 03:53:38;;;;;;;62.15;34.92;;;8.60;99.90;;;;;;5042154;28;20037;-87
2022/11/14 03:56:04;;;;;;;56.63;34.72;;;7.40;99.90;;;;;;5052531;28;20493;-88
2022/11/14 03:58:30;;;;;;;57.03;34.08;;;7.30;99.90;;;;;;5020825;28;20072;-87
2022/11/14 04:00:55;;;;;;;58.10;34.55;;;7.30;99.90;;;;;;5014881;28;20049;-87
2022/11/14 04:03:22;;;;;;;58.25;35.05;;;8.90;99.90;;;;;;5053460;28;20111;-87
2022/11/14 04:05:48;;;;;;;59.17;36.28;;;7.70;99.90;;;;;;5034924;28;20065;-87
2022/11/14 04:08:14;;;;;;;56.35;34.63;;;7.30;99.90;;;;;;5052520;28;20150;-87
2022/11/14 04:10:40;;;;;;;57.88;35.00;;;7.30;99.90;;;;;;5052613;28;20052;-87
2022/11/14 04:13:06;;;;;;;60.85;36.13;;;7.30;99.90;;;;;;5055746;28;20045;-87
2022/11/14 04:15:32;;;;;;;58.10;35.47;;;7.40;99.90;;;;;;5056272;28;20041;-87
2022/11/14 04:17:58;;;;;;;58.00;35.05;;;7.40;99.90;;;;;;5021588;28;20104;-86
2022/11/14 04:20:23;;;;;;;59.53;35.08;;;7.30;99.90;;;;;;5056187;28;20094;-86
2022/11/14 04:22:49;;;;;;;59.83;36.72;;;7.30;99.90;;;;;;5056623;28;20036;-87
2022/11/14 04:25:14;;;;;;;63.67;37.67;;;7.60;99.90;;;;;;5056672;28;20056;-87
2022/11/14 04:27:40;;;;;;;57.92;35.80;;;7.30;99.90;;;;;;5045310;28;20090;-87
2022/11/14 04:30:06;;;;;;;61.58;36.25;;;7.30;99.90;;;;;;5075949;28;20445;-87
2022/11/14 04:32:32;;;;;;;57.72;34.00;;;7.40;99.90;;;;;;5029395;28;20452;-87
2022/11/14 04:34:57;;;;;;;59.28;34.42;;;7.30;99.90;;;;;;5021650;28;20049;-86
2022/11/14 04:37:23;;;;;;;59.45;35.92;;;7.30;99.90;;;;;;5038031;28;20075;-87
2022/11/14 04:39:49;;;;;;;58.15;35.92;;;8.50;99.90;;;;;;5056426;28;20406;-87
2022/11/14 04:42:15;;;;;;;54.03;34.00;;;7.30;99.90;;;;;;5056249;28;20405;-87
2022/11/14 04:44:40;;;;;;;53.40;33.65;;;7.30;99.90;;;;;;5037838;28;20037;-87
2022/11/14 04:47:06;;;;;;;54.08;34.70;;;7.30;99.90;;;;;;5055846;28;20389;-87
2022/11/14 04:49:31;;;;;;;53.58;33.50;;;7.30;99.90;;;;;;5038174;28;20098;-86
2022/11/14 04:51:57;;;;;;;52.90;32.97;;;7.70;99.90;;;;;;5021371;28;20037;-86
2022/11/14 04:54:23;;;;;;;53.42;32.80;;;8.90;99.90;;;;;;5048499;28;20068;-87
2022/11/14 04:56:48;;;;;;;51.78;33.67;;;8.80;99.90;;;;;;5075686;28;20041;-87
2022/11/14 04:59:14;;;;;;;57.70;32.03;;;7.40;99.90;;;;;;5074337;28;20036;-86
2022/11/14 05:01:39;;;;;;;47.53;31.33;;;7.40;99.90;;;;;;5056150;28;20056;-87
2022/11/14 05:04:05;;;;;;;50.70;31.90;;;8.50;99.90;;;;;;5038911;28;20040;-87
2022/11/14 05:06:31;;;;;;;47.80;30.52;;;7.30;99.90;;;;;;5055804;28;20048;-87
2022/11/14 05:08:59;;;;;;;49.50;31.08;;;7.20;99.90;;;;;;5055099;28;20390;-86
2022/11/14 05:11:25;;;;;;;50.95;31.23;;;8.50;99.90;;;;;;5045244;28;20042;-86
2022/11/14 05:13:52;;;;;;;51.17;31.52;;;8.90;99.90;;;;;;5017573;28;20057;-87
2022/11/14 05:16:17;;;;;;;50.25;30.95;;;7.10;99.90;;;;;;5035147;28;20037;-87
2022/11/14 05:18:43;;;;;;;49.25;29.50;;;7.20;99.90;;;;;;5001126;28;20060;-87
2022/11/14 05:21:14;;;;;;;48.83;30.42;;;7.20;99.90;;;;;;5046625;28;20037;-87
2022/11/14 05:23:40;;;;;;;51.65;31.83;;;7.20;99.90;;;;;;5037008;28;20045;-87
2022/11/14 05:26:09;;;;;;;50.15;32.03;;;7.20;99.90;;;;;;5046882;28;20042;-87
2022/11/14 05:28:35;;;;;;;52.55;31.73;;;8.00;99.90;;;;;;5035316;28;20050;-87
2022/11/14 05:31:07;;;;;;;52.78;31.75;;;7.10;99.90;;;;;;5018557;28;20357;-87
2022/11/14 05:33:33;;;;;;;52.78;31.40;;;7.10;99.90;;;;;;5018653;28;20053;-87
2022/11/14 05:36:07;;;;;;;53.08;32.92;;;7.10;99.90;;;;;;5002200;28;20132;-87
2022/11/14 05:38:33;;;;;;;51.70;31.45;;;7.10;99.90;;;;;;5016268;28;20068;-87
2022/11/14 05:40:59;;;;;;;53.97;32.05;;;7.10;99.90;;;;;;5040884;28;20049;-87
2022/11/14 05:43:27;;;;;;;50.90;31.10;;;7.10;99.90;;;;;;5037240;28;20465;-88
2022/11/14 05:45:57;;;;;;;54.38;32.08;;;7.10;99.90;;;;;;5036694;28;20103;-86
2022/11/14 05:48:23;;;;;;;52.40;31.75;;;7.10;99.90;;;;;;5054833;28;20045;-86
2022/11/14 05:50:52;;;;;;;54.47;32.50;;;7.60;99.90;;;;;;5050696;28;20048;-86
2022/11/14 05:53:20;;;;;;;53.13;32.85;;;7.10;99.90;;;;;;5034502;28;20045;-86
2022/11/14 05:55:45;;;;;;;52.95;32.50;;;8.30;99.90;;;;;;5016438;28;20075;-86
2022/11/14 05:58:11;;;;;;;51.47;31.25;;;7.10;99.90;;;;;;5016726;28;20045;-87
2022/11/14 06:00:36;;;;;;;55.25;31.60;;;7.90;99.90;;;;;;5035545;28;20140;-87
2022/11/14 06:03:02;;;;;;;53.28;31.60;;;7.10;99.90;;;;;;5018317;28;20517;-87
2022/11/14 06:05:28;;;;;;;54.60;32.60;;;7.00;99.90;;;;;;5015705;28;20379;-86
2022/11/14 06:07:55;;;;;;;50.25;31.60;;;7.00;99.90;;;;;;5035143;28;20132;-87
2022/11/14 06:10:21;;;;;;;52.90;32.50;;;7.30;99.90;;;;;;5027465;28;20041;-87
2022/11/14 06:12:47;;;;;;;56.47;32.50;;;6.90;99.90;;;;;;5055135;28;20124;-86
2022/11/14 06:15:12;;;;;;;54.72;31.92;;;7.70;99.90;;;;;;5020422;28;20045;-87
2022/11/14 06:17:38;;;;;;;54.13;32.10;;;6.90;99.90;;;;;;5020716;28;20452;-88
2022/11/14 06:20:04;;;;;;;57.22;33.80;;;6.90;99.90;;;;;;5004406;28;20132;-87
2022/11/14 06:22:30;;;;;;;58.20;32.85;;;6.90;99.90;;;;;;5033819;28;20077;-86
2022/11/14 06:24:55;;;;;;;55.90;32.53;;;6.90;99.90;;;;;;5016913;28;20469;-86
2022/11/14 06:27:21;;;;;;;56.78;33.78;;;6.80;99.90;;;;;;5031508;28;20052;-85
2022/11/14 06:29:47;;;;;;;58.25;33.05;;;7.80;99.90;;;;;;5033760;28;20445;-87
2022/11/14 06:32:12;;;;;;;60.05;33.10;;;7.50;99.90;;;;;;5016873;28;20120;-86
2022/11/14 06:34:38;;;;;;;57.85;34.15;;;6.80;99.90;;;;;;5016939;28;20511;-85
2022/11/14 06:37:04;;;;;;;55.38;32.75;;;6.80;99.90;;;;;;5016148;28;20124;-85
2022/11/14 06:39:29;;;;;;;54.20;32.95;;;6.90;99.90;;;;;;5035236;28;20045;-85
2022/11/14 06:41:55;;;;;;;58.65;33.60;;;6.90;99.90;;;;;;5033107;28;20140;-83
2022/11/14 06:44:21;;;;;;;50.30;29.30;;;8.00;99.90;;;;;;4998169;28;20376;-85
2022/11/14 06:46:46;;;;;;;53.90;31.20;;;6.90;99.90;;;;;;5014861;28;20195;-85
2022/11/14 06:49:12;;;;;;;57.33;31.52;;;7.80;99.90;;;;;;5033440;28;20155;-84
2022/11/14 06:51:37;;;;;;;54.75;32.75;;;6.80;99.90;;;;;;5014724;28;20406;-85
2022/11/14 06:54:03;;;;;;;57.70;32.60;;;6.80;99.90;;;;;;5034540;28;20045;-85
2022/11/14 06:56:29;;;;;;;58.35;32.22;;;6.80;99.90;;;;;;5034200;28;20041;-85
2022/11/14 06:58:54;;;;;;;60.28;33.35;;;6.80;99.90;;;;;;5015694;28;20041;-85
2022/11/14 07:01:27;;;;;;;59.42;32.53;;;6.80;99.90;;;;;;5033540;28;20476;-85
2022/11/14 07:03:53;;;;;;;57.10;32.83;;;6.80;99.90;;;;;;5032742;28;20053;-85
2022/11/14 07:06:24;;;;;;;52.78;30.90;;;7.80;99.90;;;;;;5033690;28;20059;-85
2022/11/14 07:08:51;;;;;;;57.83;32.88;;;6.80;99.90;;;;;;5033979;28;20085;-85
2022/11/14 07:11:22;;;;;;;60.00;33.15;;;6.70;99.90;;;;;;4998240;28;20123;-84
2022/11/14 07:13:57;;;;;;;60.55;32.47;;;6.80;99.90;;;;;;5032800;28;20052;-85
2022/11/14 07:16:31;;;;;;;60.80;32.72;;;6.80;99.90;;;;;;5014346;28;20092;-85
2022/11/14 07:18:58;;;;;;;61.03;32.22;;;6.80;99.90;;;;;;5032871;28;20046;-84
2022/11/14 07:21:25;;;;;;;56.05;32.38;;;7.90;99.90;;;;;;5032189;28;20049;-83
2022/11/14 07:23:51;;;;;;;59.65;33.42;;;6.80;99.90;;;;;;5021613;28;20055;-85
2022/11/14 07:26:17;;;;;;;56.38;33.13;;;6.70;99.90;;;;;;5019926;28;20037;-85
2022/11/14 07:28:44;;;;;;;55.47;32.30;;;6.70;99.90;;;;;;5033186;28;20057;-85
2022/11/14 07:31:14;;;;;;;55.72;31.67;;;6.60;99.90;;;;;;5035156;28;20045;-85
2022/11/14 07:33:41;;;;;;;56.40;31.85;;;6.60;99.90;;;;;;5028268;28;20375;-86
2022/11/14 07:36:08;;;;;;;55.33;30.63;;;6.60;99.90;;;;;;5034667;28;20080;-85
2022/11/14 07:38:34;;;;;;;58.38;33.03;;;6.60;99.90;;;;;;5032238;28;20053;-84
2022/11/14 07:41:02;;;;;;;57.50;31.83;;;6.50;99.90;;;;;;5014208;28;20494;-84
2022/11/14 07:43:28;;;;;;;59.13;32.97;;;6.60;99.90;;;;;;5053313;28;20039;-84
2022/11/14 07:46:16;;;;;;;58.25;32.63;;;8.10;99.90;;;;;;5034508;28;20077;-85
2022/11/14 07:48:43;;;;;;;58.38;31.30;;;6.60;99.90;;;;;;5021783;28;20037;-85
2022/11/14 07:51:14;;;;;;;59.08;34.65;;;6.60;99.90;;;;;;5024445;28;20144;-85
2022/11/14 07:53:40;;;;;;;65.63;35.75;;;6.60;99.90;;;;;;5018111;28;20042;-85
2022/11/14 07:56:10;;;;;;;61.38;35.63;;;6.50;99.90;;;;;;5035609;28;20409;-84
2022/11/14 07:58:40;;;;;;;59.70;33.53;;;6.40;99.90;;;;;;5054852;28;20478;-84
2022/11/14 08:01:08;;;;;;;59.53;33.38;;;7.50;99.90;;;;;;5051323;28;20083;-84
2022/11/14 08:03:34;;;;;;;56.92;30.80;;;8.40;99.90;;;;;;5054436;28;20114;-84
2022/11/14 08:06:07;;;;;;;57.53;32.38;;;6.60;99.90;;;;;;5038483;28;20033;-84
2022/11/14 08:08:34;;;;;;;62.47;34.28;;;;;;;;;;5018068;28;20446;-84
2022/11/14 08:11:00;;;;;;;61.47;33.92;;;6.60;99.90;;;;;;5036098;28;20049;-84
2022/11/14 08:13:27;;;;;;;59.47;32.72;;;6.50;99.90;;;;;;5036160;28;20118;-84
2022/11/14 08:15:53;;;;;;;63.70;34.47;;;7.60;99.90;;;;;;5017810;28;20057;-85
2022/11/14 08:18:19;;;;;;;66.05;35.45;;;6.60;99.90;;;;;;5038468;28;20056;-84
2022/11/14 08:20:45;;;;;;;63.55;34.85;;;6.40;99.90;;;;;;5051230;28;20028;-86
2022/11/14 08:23:11;;;;;;;61.78;33.55;;;7.80;99.90;;;;;;5034371;28;20045;-85
2022/11/14 08:25:37;;;;;;;59.35;34.05;;;8.20;99.90;;;;;;5035963;28;20506;-86
2022/11/14 08:28:03;;;;;;;56.03;32.70;;;;;;;;;;5035798;28;20131;-87
2022/11/14 08:30:30;;;;;;;57.53;32.80;;;6.70;99.90;;;;;;5018994;28;20034;-86
2022/11/14 08:32:56;;;;;;;57.47;32.75;;;7.30;99.90;;;;;;5034653;28;20206;-87
2022/11/14 08:35:22;;;;;;;59.35;32.42;;;8.10;99.90;;;;;;5019861;28;20092;-90
2022/11/14 08:37:48;;;;;;;58.95;32.95;;;8.30;99.90;;;;;;5019837;28;20045;-84
2022/11/14 08:40:14;;;;;;;58.97;32.85;;;8.20;99.90;;;;;;5033895;28;20048;-84
2022/11/14 08:42:40;;;;;;;56.90;32.65;;;6.80;99.90;;;;;;5033851;28;20124;-85
2022/11/14 08:45:06;;;;;;;57.10;30.67;;;6.80;99.90;;;;;;5035375;28;20083;-85
2022/11/14 08:47:31;;;;;;;53.03;29.90;;;6.80;99.90;;;;;;5035200;28;20123;-84
2022/11/14 08:49:57;;;;;;;55.60;32.00;;;8.00;99.90;;;;;;5018039;28;20101;-84
2022/11/14 08:52:23;;;;;;;56.83;31.85;;;6.90;99.90;;;;;;5017482;28;20394;-84
2022/11/14 08:54:48;;;;;;;55.58;32.15;;;7.50;99.90;;;;;;5035076;28;20144;-84
2022/11/14 08:57:14;;;;;;;59.83;32.30;;;7.70;99.90;;;;;;5016440;28;20578;-84
2022/11/14 08:59:41;;;;;;;57.65;32.08;;;8.30;99.90;;;;;;5017933;28;20053;-84
2022/11/14 09:02:10;;;;;;;59.85;34.20;;;8.30;99.90;;;;;;5017543;28;20056;-84
2022/11/14 09:04:36;;;;;;;61.95;34.38;;;7.20;99.90;;;;;;5001987;28;20124;-84
2022/11/14 09:07:02;;;;;;;64.15;36.45;;;8.70;99.90;;;;;;5001273;28;20144;-84
2022/11/14 09:09:27;;;;;;;65.93;35.85;;;7.20;99.90;;;;;;5016957;28;20516;-84
2022/11/14 09:11:53;;;;;;;70.38;39.63;;;7.50;99.90;;;;;;5000815;28;20060;-84
2022/11/14 09:14:19;;;;;;;70.15;39.47;;;7.20;99.90;;;;;;5017028;28;20057;-85
2022/11/14 09:16:47;;;;;;;69.13;38.88;;;7.20;99.90;;;;;;5016823;28;20095;-85
2022/11/14 09:19:12;;;;;;;70.53;40.28;;;7.20;99.90;;;;;;5000642;28;20069;-86
2022/11/14 09:21:38;;;;;;;72.43;39.50;;;7.20;99.90;;;;;;5016665;28;20045;-86
2022/11/14 09:24:04;;;;;;;71.00;39.40;;;8.10;99.90;;;;;;5017820;28;20045;-86
2022/11/14 09:26:30;;;;;;;65.78;37.22;;;7.20;99.90;;;;;;5022517;28;20037;-86
2022/11/14 09:28:56;;;;;;;62.08;35.58;;;8.40;99.90;;;;;;5020208;28;20056;-85
2022/11/14 09:31:22;;;;;;;54.97;32.65;;;7.30;99.90;;;;;;5053115;28;20047;-88
2022/11/14 09:33:47;;;;;;;56.40;31.40;;;7.30;99.90;;;;;;5015340;28;20087;-89
2022/11/14 09:36:14;;;;;;;56.83;32.55;;;7.30;99.90;;;;;;5004170;28;20125;-86
2022/11/14 09:38:42;;;;;;;54.53;31.85;;;8.50;99.90;;;;;;5000324;28;20049;-85
2022/11/14 09:41:14;;;;;;;52.30;31.20;;;7.60;99.90;;;;;;5016290;28;20049;-86
2022/11/14 09:43:42;;;;;;;51.17;32.20;;;8.80;99.90;;;;;;5014117;28;20128;-87
2022/11/14 09:46:27;;;;;;;53.80;33.17;;;9.30;99.90;;;;;;5003103;28;20040;-84
2022/11/14 09:48:53;;;;;;;58.88;32.47;;;9.50;99.90;;;;;;5019231;28;20041;-86
2022/11/14 09:51:24;;;;;;;54.72;32.20;;;9.50;99.90;;;;;;5034210;28;20033;-85
2022/11/14 09:53:56;;;;;;;55.58;32.97;;;9.50;99.90;;;;;;5036370;28;20060;-85
2022/11/14 09:56:24;;;;;;;54.75;32.17;;;9.40;99.90;;;;;;5055907;28;20129;-88
2022/11/14 09:58:50;;;;;;;53.30;32.60;;;10.50;99.90;;;;;;5026135;28;20052;-85
2022/11/14 10:01:50;;;;;;;51.85;32.20;;;9.80;99.90;;;;;;5043700;28;20052;-85
2022/11/14 10:04:44;;;;;;;50.13;31.00;;;9.70;99.90;;;;;;5026033;28;20041;-86
2022/11/14 10:07:44;;;;;;;48.63;30.33;;;9.50;99.90;;;;;;5043203;28;20045;-85
2022/11/14 10:10:28;;;;;;;50.45;30.85;;;9.20;99.90;;;;;;5050983;28;20041;-85
2022/11/14 10:13:15;;;;;;;46.08;28.63;;;9.10;99.90;;;;;;5053518;28;20092;-85
2022/11/14 10:15:54;;;;;;;49.33;31.65;;;8.90;99.90;;;;;;5051917;28;20182;-85
2022/11/14 10:18:57;;;;;;;52.35;29.98;;;8.70;99.90;;;;;;5053815;28;20041;-85
2022/11/14 10:21:53;;;;;;;46.80;29.02;;;8.70;99.90;;;;;;5045374;28;20045;-85
2022/11/14 10:24:59;;;;;;;43.03;27.67;;;8.70;99.90;;;;;;5036085;28;20120;-85
2022/11/14 10:27:32;;;;;;;42.95;27.25;;;8.60;99.90;;;;;;5047380;28;20413;-85
2022/11/14 10:30:14;;;;;;;43.03;27.50;;;8.70;99.90;;;;;;5052407;28;20749;-85
2022/11/14 10:32:59;;;;;;;46.15;28.90;;;8.80;99.90;;;;;;5051085;28;20041;-85
2022/11/14 10:35:49;;;;;;;47.10;29.35;;;8.90;99.90;;;;;;5045305;28;20049;-85
2022/11/14 10:38:40;;;;;;;48.13;30.90;;;9.10;99.90;;;;;;4992162;28;20053;-84
2022/11/14 10:41:08;;;;;;;53.03;32.00;;;9.20;99.90;;;;;;5015204;28;20050;-85
2022/11/14 10:43:46;;;;;;;48.60;31.77;;;9.30;99.90;;;;;;5031547;28;20064;-84
2022/11/14 10:46:18;;;;;;;52.88;32.97;;;9.40;99.90;;;;;;5035545;28;20056;-85
2022/11/14 10:48:47;;;;;;;51.10;33.15;;;9.50;99.90;;;;;;5054145;28;20385;-85
2022/11/14 10:51:25;;;;;;;56.38;33.80;;;9.50;99.90;;;;;;5050517;28;20110;-85
2022/11/14 10:53:56;;;;;;;53.08;34.08;;;9.50;99.90;;;;;;5051467;28;20127;-85
2022/11/14 10:56:22;;;;;;;52.38;33.33;;;9.40;99.90;;;;;;5040447;28;20060;-85
2022/11/14 10:58:48;;;;;;;52.35;31.70;;;9.40;99.90;;;;;;5033525;28;20042;-85
2022/11/14 11:01:34;;;;;;;51.20;31.30;;;9.40;99.90;;;;;;5042068;28;20046;-86
2022/11/14 11:04:23;;;;;;;47.97;29.70;;;9.40;99.90;;;;;;5031536;28;20500;-86
2022/11/14 11:06:51;;;;;;;44.97;28.38;;;10.50;99.90;;;;;;5050249;28;20037;-86
2022/11/14 11:12:06;;;;;;;40.42;26.05;;;10.80;99.90;;;;;;5051621;28;20366;-86
2022/11/14 11:14:33;;;;;;;36.50;24.90;;;11.10;99.90;;;;;;5053861;28;20127;-87
2022/11/14 11:17:10;;;;;;;35.97;25.10;;;12.40;99.90;;;;;;5046198;28;20397;-86
2022/11/14 11:19:40;;;;;;;35.78;24.67;;;11.50;99.90;;;;;;5030934;28;20085;-87
2022/11/14 11:22:43;;;;;;;36.70;23.38;;;11.50;99.90;;;;;;5031699;28;20052;-87
2022/11/14 11:25:28;;;;;;;38.38;24.95;;;11.00;99.90;;;;;;5031189;28;20076;-85
2022/11/14 11:28:28;;;;;;;36.20;24.75;;;11.70;99.90;;;;;;5014663;28;20095;-86
2022/11/14 11:30:59;;;;;;;36.88;24.00;;;10.50;99.90;;;;;;5001916;28;20198;-87
2022/11/14 11:33:33;;;;;;;40.53;25.10;;;10.50;99.90;;;;;;5037757;28;20048;-77
2022/11/14 11:36:02;;;;;;;35.88;24.27;;;10.20;99.90;;;;;;5028876;28;20561;-77
2022/11/14 11:38:29;;;;;;;38.92;23.80;;;9.80;99.90;;;;;;5029105;28;20064;-77
2022/11/14 11:41:12;;;;;;;37.65;23.98;;;9.70;99.90;;;;;;5028560;28;20552;-75
2022/11/14 11:43:58;;;;;;;39.08;24.60;;;9.80;99.90;;;;;;5028730;28;20475;-76
2022/11/14 11:46:46;;;;;;;40.30;25.92;;;10.20;99.90;;;;;;5028651;28;20383;-76
2022/11/14 11:49:41;;;;;;;36.65;24.60;;;11.80;99.90;;;;;;5033585;28;20055;-76
2022/11/14 11:52:39;;;;;;;36.63;24.08;;;11.10;99.90;;;;;;5034974;28;20053;-76
2022/11/14 11:55:07;;;;;;;37.00;24.25;;;11.50;99.90;;;;;;5006996;28;20061;-76
2022/11/14 11:57:58;;;;;;;36.65;23.95;;;12.20;99.90;;;;;;5048349;28;20337;-77
2022/11/14 12:00:23;;;;;;;35.72;24.27;;;11.80;99.90;;;;;;5048089;28;20064;-76
2022/11/14 12:02:51;;;;;;;35.92;23.80;;;12.30;99.90;;;;;;5046097;28;20053;-76
2022/11/14 12:05:29;;;;;;;35.20;24.08;;;;;;;;;;5043174;28;20375;-77
2022/11/14 12:08:08;;;;;;;33.25;23.42;;;;;;;;;;5047405;28;20052;-77
2022/11/14 12:10:37;;;;;;;31.63;21.90;;;;;;;;;;5048607;28;20131;-77
2022/11/14 12:13:03;;;;;;;31.13;21.98;;;;;;;;;;5030277;28;20216;-77
2022/11/14 12:15:48;;;;;;;32.08;21.90;;;;;;;;;;5026272;28;20140;-76
2022/11/14 12:18:21;;;;;;;30.90;21.13;;;;;;;;;;5028292;28;20037;-76
2022/11/14 12:21:05;;;;;;;30.98;20.85;;;;;;;;;;5028339;28;20046;-77
2022/11/14 12:23:31;;;;;;;29.65;21.77;;;;;;;;;;5028191;28;20427;-76
2022/11/14 12:26:16;;;;;;;29.45;21.38;;;;;;;;;;5032125;28;20398;-82
2022/11/14 12:28:45;;;;;;;34.08;22.40;;;;;;;;;;5015690;28;20434;-86
2022/11/14 12:31:13;;;;;;;31.67;21.88;;;;;;;;;;5034784;28;20037;-86
2022/11/14 12:33:43;;;;;;;34.33;21.10;;;;;;;;;;5032694;28;20097;-87
2022/11/14 12:36:10;;;;;;;30.85;21.08;;;;;;;;;;5020863;28;20399;-87
2022/11/14 12:38:50;;;;;;;31.58;22.00;;;;;;;;;;5039682;28;20044;-85
2022/11/14 12:41:26;;;;;;;31.13;21.38;;;;;;;;;;5033032;28;20116;-85
2022/11/14 12:43:52;;;;;;;29.75;20.70;;;12.50;99.90;;;;;;5013822;28;20394;-86
2022/11/14 12:46:17;;;;;;;31.15;22.33;;;13.80;99.90;;;;;;5055094;28;20049;-84
2022/11/14 12:48:46;;;;;;;31.00;22.48;;;13.50;99.90;;;;;;5036789;28;20064;-84
2022/11/14 12:51:44;;;;;;;31.58;22.70;;;13.30;99.90;;;;;;5054869;28;20053;-83
2022/11/14 12:54:41;;;;;;;31.15;21.65;;;12.90;99.90;;;;;;5036813;28;20041;-83